Latest Weather Observations for Warra

IDT60801

Issued at 7:31 am EST Tuesday 26 May 2015 (issued every 30 minutes, with the page automatically refreshed every 10 minutes)

About weather observations | Map of weather stations | Latest weather observations for TAS | Other Formats
Station Details ID: 097024 Name: WARRA Lat: -43.06 Lon: 146.70 Height: 495.0 m
Data from the previous 72 hours. | See also: Recent months at Warra
Date/Time
EST
Temp
°C
App
Temp
°C
Dew
Point
Rel
Hum
%
Delta-T
°C
Wind Press
QNH
hPa
Press
MSL
hPa
Rain
since 9 am
mm
Dir
 
Spd
km/h
Gust
km/h
Spd
kts
Gust
kts
26/07:30am 8.2 5.7 8.1 99 0.0 W 11 24 6 13 - - 2.0
26/07:00am 8.3 5.8 8.2 99 0.0 W 11 19 6 10 - - 1.8
26/06:30am 8.2 5.7 8.1 99 0.0 WNW 11 19 6 10 - - 1.8
26/06:00am 8.1 5.2 8.0 99 0.0 W 13 19 7 10 - - 1.8
26/05:30am 7.9 7.4 7.8 99 0.0 CALM 0 11 0 6 - - 1.8
26/05:00am 8.3 6.9 7.4 94 0.4 W 4 9 2 5 - - 1.6
26/04:30am 8.6 6.6 7.1 90 0.7 NW 7 13 4 7 - - 1.4
26/04:00am 8.5 6.1 6.8 89 0.8 WNW 9 15 5 8 - - 1.4
26/03:30am 8.8 6.6 6.1 83 1.3 WNW 7 22 4 12 - - 1.4
26/03:00am 8.8 5.1 6.4 85 1.1 W 15 28 8 15 - - 1.4
26/02:30am 8.4 4.4 6.5 88 0.9 W 17 30 9 16 - - 1.4
26/02:00am 8.8 5.5 6.6 86 1.0 W 13 28 7 15 - - 1.2
26/01:30am 9.0 4.4 5.7 80 1.5 W 19 35 10 19 - - 1.0
26/01:00am 9.1 4.5 5.8 80 1.5 W 19 35 10 19 - - 1.0
26/12:30am 9.1 5.0 6.4 83 1.3 W 17 32 9 17 - - 1.0
26/12:00am 9.0 4.9 6.4 84 1.2 W 17 35 9 19 - - 1.0
 
Date/Time
EST
Temp
°C
App
Temp
°C
Dew
Point
Rel
Hum
%
Delta-T
°C
Wind Press
QNH
hPa
Press
MSL
hPa
Rain
since 9 am
mm
Dir
 
Spd
km/h
Gust
km/h
Spd
kts
Gust
kts
25/11:30pm 9.1 4.3 7.4 89 0.8 W 22 39 12 21 - - 1.0
25/11:00pm 9.0 4.6 7.6 91 0.7 W 20 37 11 20 - - 1.0
25/10:30pm 9.0 5.2 7.5 90 0.7 W 17 33 9 18 - - 0.8
25/10:00pm 8.8 4.9 7.3 90 0.7 WNW 17 32 9 17 - - 0.8
25/09:30pm 8.9 5.0 7.0 88 0.9 W 17 33 9 18 - - 0.6
25/09:00pm 8.8 4.9 7.3 90 0.7 W 17 30 9 16 - - 0.6
25/08:30pm 8.5 4.6 7.0 90 0.7 WNW 17 35 9 19 - - 0.6
25/08:00pm 9.8 5.3 6.0 77 1.8 WNW 19 39 10 21 - - 0.0
25/07:30pm 9.6 6.5 5.6 76 1.9 NW 11 26 6 14 - - 0.0
25/07:00pm 9.5 5.3 5.7 77 1.8 WNW 17 32 9 17 - - 0.0
25/06:30pm 8.7 6.0 5.6 81 1.4 NW 9 15 5 8 - - 0.0
25/06:00pm 9.0 5.6 5.9 81 1.5 NW 13 30 7 16 - - 0.0
25/05:30pm 8.5 5.1 6.1 85 1.1 NNW 13 26 7 14 - - 0.0
25/05:00pm 8.4 4.7 6.2 86 1.0 NNW 15 22 8 12 - - 0.0
25/04:30pm 8.2 4.9 6.2 87 0.9 NW 13 19 7 10 - - 0.0
25/04:00pm 8.5 4.7 5.8 83 1.3 NW 15 28 8 15 - - 0.0
25/03:30pm 8.4 5.0 5.9 84 1.2 NNW 13 19 7 10 - - 0.0
25/03:00pm 8.9 5.5 5.8 81 1.5 NW 13 33 7 18 - - 0.0
25/02:30pm 8.8 5.4 5.9 82 1.4 NNW 13 24 7 13 - - 0.0
25/02:00pm 9.1 6.1 5.8 80 1.5 NNW 11 15 6 8 - - 0.0
25/01:30pm 9.5 5.9 5.1 74 2.0 WNW 13 22 7 12 - - 0.0
25/01:00pm 10.7 7.2 5.5 70 2.5 WNW 13 28 7 15 - - 0.0
25/12:30pm 9.5 6.3 5.3 75 2.0 NW 11 26 6 14 - - 0.0
25/12:00pm 8.2 6.3 6.5 89 0.8 ESE 6 7 3 4 - - 0.0
25/11:30am 8.1 5.9 6.4 89 0.8 ENE 7 11 4 6 - - 0.0
25/11:00am 8.1 6.5 6.4 89 0.8 ENE 4 7 2 4 - - 0.0
25/10:30am 8.1 5.8 5.9 86 1.0 ESE 7 11 4 6 - - 0.0
25/10:00am 8.3 6.4 6.8 90 0.7 ESE 6 9 3 5 - - 0.0
25/09:30am 7.1 5.7 7.1 100 0.0 NNE 4 7 2 4 - - 0.0
25/09:00am 5.5 3.3 5.5 100 0.0 SW 6 11 3 6 - - 0.0
25/08:30am 4.9 3.0 4.9 100 0.0 SW 4 7 2 4 - - 0.0
25/08:00am 4.6 3.4 4.6 100 0.0 CALM 0 0 0 0 - - 0.0
25/07:30am 4.7 3.5 4.7 100 0.0 CALM 0 7 0 4 - - 0.0
25/07:00am 4.7 2.8 4.7 100 0.0 SW 4 7 2 4 - - 0.0
25/06:30am 4.7 3.5 4.7 100 0.0 CALM 0 0 0 0 - - 0.0
25/06:00am 4.7 3.1 4.7 100 0.0 SE 2 9 1 5 - - 0.0
25/05:30am 4.4 3.2 4.4 100 0.0 CALM 0 0 0 0 - - 0.0
25/05:00am 4.2 2.9 4.2 100 0.0 CALM 0 0 0 0 - - 0.0
25/04:30am 4.3 2.3 4.3 100 0.0 SW 4 7 2 4 - - 0.0
25/04:00am 4.4 2.0 4.4 100 0.0 SSE 6 9 3 5 - - 0.0
25/03:30am 4.9 2.6 4.9 100 0.0 N 6 13 3 7 - - 0.0
25/03:00am 4.7 2.7 4.6 99 0.0 SE 4 6 2 3 - - 0.0
25/02:30am 5.2 2.8 5.1 99 0.0 NW 7 13 4 7 - - 0.0
25/02:00am 5.0 2.5 4.9 99 0.0 NW 7 13 4 7 - - 0.0
25/01:30am 4.6 3.4 4.5 99 0.0 CALM 0 0 0 0 - - 0.0
25/01:00am 4.7 3.5 4.6 99 0.0 CALM 0 0 0 0 - - 0.0
25/12:30am 4.9 2.5 4.5 97 0.2 WNW 6 9 3 5 - - 0.0
25/12:00am 4.9 2.4 4.5 97 0.2 WNW 7 11 4 6 - - 0.0
 
Date/Time
EST
Temp
°C
App
Temp
°C
Dew
Point
Rel
Hum
%
Delta-T
°C
Wind Press
QNH
hPa
Press
MSL
hPa
Rain
since 9 am
mm
Dir
 
Spd
km/h
Gust
km/h
Spd
kts
Gust
kts
24/11:30pm 4.4 1.9 3.8 96 0.3 NNW 6 11 3 6 - - 0.0
24/11:00pm 4.6 1.9 3.9 95 0.3 N 7 11 4 6 - - 0.0
24/10:30pm 4.4 1.4 4.0 97 0.2 NW 9 11 5 6 - - 0.0
24/10:00pm 3.4 -0.2 3.1 98 0.1 NW 11 17 6 9 - - 0.0
24/09:30pm 3.5 0.3 3.1 97 0.2 NW 9 13 5 7 - - 0.0
24/09:00pm 3.7 0.2 3.4 98 0.1 NW 11 15 6 8 - - 0.0
24/08:30pm 3.4 0.2 3.3 99 0.0 NW 9 11 5 6 - - 0.0
24/08:00pm 3.6 0.1 3.5 99 0.0 NW 11 19 6 10 - - 0.0
24/07:30pm 3.3 -0.3 2.9 97 0.2 NW 11 13 6 7 - - 0.0
24/07:00pm 3.2 -0.5 2.3 94 0.4 NW 11 13 6 7 - - 0.0
24/06:30pm 3.9 0.6 2.7 92 0.5 NW 9 11 5 6 - - 0.0
24/06:00pm 4.5 0.9 3.0 90 0.6 W 11 17 6 9 - - 0.0
24/05:30pm 4.8 1.2 3.1 89 0.7 W 11 17 6 9 - - 0.0
24/05:00pm 4.9 1.4 3.4 90 0.6 WSW 11 22 6 12 - - 0.0
24/04:30pm 5.1 2.0 3.4 89 0.7 WSW 9 20 5 11 - - 0.0
24/04:00pm 5.7 1.9 3.7 87 0.9 WSW 13 22 7 12 - - 0.0
24/03:30pm 6.1 2.3 3.8 85 1.0 WSW 13 20 7 11 - - 0.0
24/03:00pm 6.4 3.0 3.9 84 1.1 WSW 11 19 6 10 - - 0.0
24/02:30pm 6.3 2.5 4.0 85 1.0 WSW 13 20 7 11 - - 0.0
24/02:00pm 7.0 3.2 4.0 81 1.3 WSW 13 19 7 10 - - 0.0
24/01:30pm 7.1 3.7 4.1 81 1.3 WSW 11 17 6 9 - - 0.0
24/01:00pm 7.5 4.5 4.3 80 1.4 WSW 9 19 5 10 - - 0.0
24/12:30pm 7.7 4.8 4.7 81 1.4 WSW 9 17 5 9 - - 0.0
24/12:00pm 7.5 5.5 4.5 81 1.3 SSE 4 9 2 5 - - 0.0
24/11:30am 7.5 5.1 4.5 81 1.3 SSE 6 11 3 6 - - 0.0
24/11:00am 6.9 4.3 4.2 83 1.2 ESE 7 9 4 5 - - 0.0
24/10:30am 6.9 4.5 4.2 83 1.2 ESE 6 9 3 5 - - 0.0
24/10:00am 6.2 3.6 4.0 86 1.0 ESE 7 9 4 5 - - 0.0
24/09:30am 5.8 3.2 4.1 89 0.7 ESE 7 11 4 6 - - 0.0
24/09:00am 5.9 3.7 5.2 95 0.3 N 6 11 3 6 - - 0.0
24/08:30am 3.8 2.1 3.8 100 0.0 N 2 7 1 4 - - 0.0
24/08:00am 2.5 -0.8 2.4 99 0.0 WSW 9 13 5 7 - - 0.0
24/07:30am 2.5 -1.2 2.5 100 0.0 WNW 11 15 6 8 - - 0.0
24/07:00am 2.3 -1.4 2.3 100 0.0 W 11 17 6 9 - - 0.0
24/06:30am 1.7 -1.7 1.6 99 0.0 WNW 9 11 5 6 - - 0.0
24/06:00am 2.1 -1.3 2.0 99 0.0 NW 9 24 5 13 - - 0.0
24/05:30am 1.7 -1.4 1.6 99 0.0 NW 7 13 4 7 - - 0.0
24/05:00am 1.6 -0.9 1.5 99 0.0 NNW 4 9 2 5 - - 0.0
24/04:30am 2.3 -0.8 1.6 95 0.3 NW 7 13 4 7 - - 0.0
24/04:00am 3.1 -0.2 2.2 94 0.4 WNW 9 17 5 9 - - 0.0
24/03:30am 3.4 0.5 2.4 93 0.4 WNW 7 13 4 7 - - 0.0
24/03:00am 3.3 0.3 2.0 91 0.5 WNW 7 11 4 6 - - 0.0
24/02:30am 3.9 0.2 2.1 88 0.7 W 11 22 6 12 - - 0.0
24/02:00am 4.1 0.0 2.3 88 0.7 W 13 22 7 12 - - 0.0
24/01:30am 3.7 0.0 2.1 89 0.7 WNW 11 20 6 11 - - 0.0
24/01:00am 3.8 0.4 2.0 88 0.7 WNW 9 15 5 8 - - 0.0
24/12:30am 4.3 0.6 2.3 87 0.8 NW 11 17 6 9 - - 0.0
24/12:00am 4.5 0.4 2.2 85 1.0 WNW 13 20 7 11 - - 0.0
 
Date/Time
EST
Temp
°C
App
Temp
°C
Dew
Point
Rel
Hum
%
Delta-T
°C
Wind Press
QNH
hPa
Press
MSL
hPa
Rain
since 9 am
mm
Dir
 
Spd
km/h
Gust
km/h
Spd
kts
Gust
kts
23/11:30pm 4.5 0.4 2.0 84 1.0 WNW 13 20 7 11 - - 0.0
23/11:00pm 4.5 0.4 2.0 84 1.0 WNW 13 26 7 14 - - 0.0
23/10:30pm 4.5 0.3 1.9 83 1.1 WNW 13 24 7 13 - - 0.0
23/10:00pm 4.8 0.6 1.8 81 1.2 WNW 13 26 7 14 - - 0.0
23/09:30pm 5.0 0.8 1.8 80 1.3 WNW 13 24 7 13 - - 0.0
23/09:00pm 5.3 0.4 2.3 81 1.3 WNW 17 32 9 17 - - 0.0
23/08:30pm 5.6 0.8 2.4 80 1.3 W 17 28 9 15 - - 0.0
23/08:00pm 5.6 0.8 2.4 80 1.3 W 17 32 9 17 - - 0.0
23/07:30pm 5.8 0.9 2.3 78 1.5 W 17 33 9 18 - - 0.0
23/07:00pm 6.1 0.9 2.4 77 1.6 WNW 19 32 10 17 - - 0.0
23/06:30pm 6.1 2.5 3.1 81 1.3 WNW 11 19 6 10 - - 0.0
23/06:00pm 6.1 2.5 3.1 81 1.3 WNW 11 19 6 10 - - 0.0
23/05:30pm 6.0 2.4 3.0 81 1.3 NW 11 22 6 12 - - 0.0
23/05:00pm 5.7 2.1 2.7 81 1.3 WNW 11 24 6 13 - - 0.0
23/04:30pm 5.9 1.8 2.4 78 1.5 WNW 13 28 7 15 - - 0.0
23/04:00pm 6.5 2.5 2.9 78 1.5 W 13 24 7 13 - - 0.0
23/03:30pm 7.5 3.3 3.6 76 1.7 WSW 15 24 8 13 - - 0.0
23/03:00pm 7.7 3.4 3.2 73 2.0 W 15 30 8 16 - - 0.0
23/02:30pm 8.6 4.7 3.2 69 2.4 W 13 22 7 12 - - 0.0
23/02:00pm 7.9 3.3 3.6 74 1.9 WNW 17 28 9 15 - - 0.0
23/01:30pm 7.5 4.0 3.6 76 1.7 W 11 26 6 14 - - 0.0
23/01:00pm 8.2 4.4 3.9 74 1.9 W 13 20 7 11 - - 0.0
23/12:30pm 7.6 3.6 3.1 73 2.0 WSW 13 33 7 18 - - 0.0
23/12:00pm 7.4 2.7 3.3 75 1.8 W 17 33 9 18 - - 0.0
23/11:30am 7.2 3.1 4.2 81 1.3 WNW 15 28 8 15 - - 0.0
23/11:00am 7.0 4.0 4.0 81 1.3 W 9 24 5 13 - - 0.0
23/10:30am 6.8 3.7 3.6 80 1.4 W 9 19 5 10 - - 0.0
23/10:00am 6.8 2.2 3.6 80 1.4 W 17 35 9 19 - - 0.0
23/09:30am 6.2 1.6 3.9 85 1.0 W 17 32 9 17 - - 0.0
23/09:00am 6.0 0.8 3.7 85 1.0 W 20 41 11 22 - - 0.2
23/08:30am 6.1 0.9 3.3 82 1.2 W 20 41 11 22 - - 0.2
23/08:00am 5.8 0.2 3.5 85 1.0 W 22 39 12 21 - - 0.2

Other Formats:

Comma delimited format used in spreadsheet applications
http://www.bom.gov.au/fwo/IDT60801/IDT60801.95962.axf

JavaScript Object Notation format (JSON) in row-major order
http://www.bom.gov.au/fwo/IDT60801/IDT60801.95962.json